Time;durP1;ratioP1;P1;durP2;ratioP2;P2;SDS_P1;SDS_P2;PMS_P1;PMS_P2;Temp;Humidity;BMP_temperature;BMP_pressure;BME280_temperature;BME280_humidity;BME280_pressure;Samples;Min_cycle;Max_cycle;Signal;HPM_P1;HPM_P2
2024/03/18 00:00:29;;;;;;;20.13;10.95;;;;;;;8.48;59.91;100609.63;10284525;29;20047;-80
2024/03/18 00:05:31;;;;;;;23.85;11.93;;;;;;;8.59;60.02;100612.41;10261965;28;20040;-82
2024/03/18 00:10:34;;;;;;;18.25;11.30;;;;;;;8.56;59.93;100609.97;10262769;28;20043;-82
2024/03/18 00:15:36;;;;;;;16.40;10.13;;;;;;;8.53;59.87;100610.19;10242653;29;20058;-81
2024/03/18 00:20:38;;;;;;;20.08;12.38;;;;;;;8.55;59.84;100602.88;10240815;29;20055;-82
2024/03/18 00:25:42;;;;;;;18.38;12.38;;;;;;;8.58;60.06;100607.16;10246345;29;20058;-82
2024/03/18 00:30:44;;;;;;;18.10;10.13;;;;;;;8.65;59.93;100604.94;10231937;29;20619;-82
2024/03/18 00:35:46;;;;;;;18.42;10.90;;;;;;;8.53;60.28;100593.22;10244716;29;20094;-82
2024/03/18 00:40:56;;;;;;;16.35;10.20;;;;;;;8.52;60.32;100580.81;10246486;29;20047;-82
2024/03/18 00:45:59;;;;;;;19.20;11.25;;;;;;;8.49;60.45;100584.56;10237837;29;20074;-81
2024/03/18 00:51:01;;;;;;;19.33;11.88;;;;;;;8.45;60.33;100563.41;10220041;29;20046;-82
2024/03/18 00:56:07;;;;;;;20.05;12.00;;;;;;;8.42;60.83;100561.84;10246969;29;20051;-81
2024/03/18 01:01:10;;;;;;;16.00;10.48;;;;;;;8.33;60.98;100562.47;10239723;29;20054;-81
2024/03/18 01:06:12;;;;;;;;;;;;;;;8.46;60.64;100551.81;10243600;29;20036;-82
2024/03/18 01:11:15;;;;;;;17.35;10.82;;;;;;;8.49;60.87;100548.91;10228534;29;19927;-81
2024/03/18 01:16:21;;;;;;;20.00;11.32;;;;;;;8.46;60.60;100549.13;10237349;29;20058;-82
2024/03/18 01:21:24;;;;;;;19.73;11.55;;;;;;;8.44;60.86;100535.78;10224774;29;20047;-81
2024/03/18 01:26:28;;;;;;;17.48;10.90;;;;;;;8.33;61.24;100535.69;10275809;29;20143;-82
2024/03/18 01:31:30;;;;;;;16.08;11.43;;;;;;;8.38;60.69;100537.09;10258803;29;20043;-82
2024/03/18 01:36:33;;;;;;;22.48;12.45;;;;;;;8.54;60.64;100533.38;10242619;29;20054;-81
2024/03/18 01:41:36;;;;;;;20.25;12.55;;;;;;;8.00;73.11;100526.34;10238435;28;20059;-81
2024/03/18 01:46:38;;;;;;;22.25;12.30;;;;;;;7.43;81.43;100529.25;10246090;29;20039;-81
2024/03/18 01:51:40;;;;;;;23.98;13.77;;;;;;;7.24;83.46;100519.81;10246325;29;20036;-80
2024/03/18 01:56:44;;;;;;;24.17;13.82;;;;;;;7.04;80.56;100517.53;10246187;29;20074;-80
2024/03/18 02:01:46;;;;;;;22.63;13.73;;;;;;;7.17;82.03;100521.13;10241452;29;20054;-81
2024/03/18 02:06:48;;;;;;;22.65;14.35;;;;;;;6.98;79.64;100510.78;10244125;29;20039;-81
2024/03/18 02:11:51;;;;;;;25.23;15.50;;;;;;;7.21;80.84;100490.63;10232864;29;20471;-81
2024/03/18 02:16:53;;;;;;;22.23;13.50;;;;;;;7.20;79.77;100493.38;10230697;29;20044;-81
2024/03/18 02:21:55;;;;;;;25.17;14.02;;;;;;;7.34;78.50;100489.78;10232577;29;20942;-81
2024/03/18 02:27:05;;;;;;;26.55;13.52;;;;;;;7.47;79.19;100488.03;10235271;28;20058;-80
2024/03/18 02:32:07;;;;;;;26.70;15.55;;;;;;;7.48;75.47;100479.03;10242555;29;20047;-81
2024/03/18 02:37:09;;;;;;;24.27;14.05;;;;;;;7.61;74.54;100484.44;10292033;29;20151;-80
2024/03/18 02:42:13;;;;;;;24.52;14.13;;;;;;;7.69;71.57;100482.94;10287727;28;20054;-81
2024/03/18 02:47:15;;;;;;;24.67;13.55;;;;;;;7.79;71.22;100479.66;10246475;29;20145;-81
2024/03/18 02:52:17;;;;;;;25.17;13.65;;;;;;;7.76;69.63;100474.50;10242591;29;20054;-81
2024/03/18 02:57:21;;;;;;;26.15;14.00;;;;;;;7.76;69.00;100475.34;10243006;29;20040;-81
2024/03/18 03:02:23;;;;;;;28.00;15.00;;;;;;;7.46;78.98;100476.47;10232854;29;20063;-81
2024/03/18 03:07:25;;;;;;;26.13;15.63;;;;;;;7.06;89.82;100470.22;10246391;28;20035;-80
2024/03/18 03:12:29;;;;;;;29.85;15.05;;;;;;;6.61;87.90;100467.72;10248298;29;20680;-81
2024/03/18 03:17:33;;;;;;;28.13;15.95;;;;;;;6.66;89.82;100467.41;10227399;29;20039;-81
2024/03/18 03:22:35;;;;;;;33.70;16.20;;;;;;;6.76;89.97;100465.00;10231495;29;20061;-81
2024/03/18 03:27:38;;;;;;;28.13;14.98;;;;;;;6.83;87.33;100461.00;10251037;29;20051;-79
2024/03/18 03:32:40;;;;;;;30.00;15.15;;;;;;;6.89;85.57;100446.44;10248668;29;20035;-80
2024/03/18 03:37:42;;;;;;;28.75;15.18;;;;;;;7.04;85.84;100448.09;10266102;28;20043;-81
2024/03/18 03:42:46;;;;;;;24.05;14.20;;;;;;;6.99;81.52;100450.19;10248960;28;20507;-80
2024/03/18 03:47:48;;;;;;;26.33;14.57;;;;;;;7.03;81.18;100441.91;10239097;28;20426;-80
2024/03/18 03:52:50;;;;;;;27.73;14.57;;;;;;;6.90;77.67;100434.78;10260456;29;20356;-79
2024/03/18 03:57:53;;;;;;;28.58;15.68;;;;;;;7.10;78.56;100433.47;10263139;29;20505;-80
2024/03/18 04:02:55;;;;;;;27.98;14.25;;;;;;;7.09;78.05;100431.78;10255712;29;20043;-81
2024/03/18 04:07:57;;;;;;;27.88;14.93;;;;;;;7.05;78.37;100433.81;10242522;29;20514;-80
2024/03/18 04:13:01;;;;;;;25.63;13.77;;;;;;;7.01;77.52;100422.44;10250680;29;20475;-82
2024/03/18 04:18:03;;;;;;;28.48;14.50;;;;;;;7.12;76.01;100426.22;10242029;29;20051;-81
2024/03/18 04:23:05;;;;;;;25.92;13.52;;;;;;;7.11;73.88;100412.03;10246113;29;20039;-81
2024/03/18 04:28:09;;;;;;;25.05;13.88;;;;;;;7.18;73.56;100418.66;10241558;29;20039;-81
2024/03/18 04:33:11;;;;;;;27.63;14.20;;;;;;;7.05;70.86;100413.28;10241056;29;20047;-81
2024/03/18 04:38:12;;;;;;;24.50;13.15;;;;;;;7.27;70.71;100402.03;10242477;29;20047;-81
2024/03/18 04:43:16;;;;;;;27.13;14.48;;;;;;;7.14;69.28;100401.13;10250228;29;20081;-81
2024/03/18 04:48:21;;;;;;;26.67;13.68;;;;;;;7.28;68.78;100405.56;10240696;29;20130;-80
2024/03/18 04:53:23;;;;;;;23.10;12.63;;;;;;;7.30;67.57;100403.63;10231234;28;21007;-79
2024/03/18 04:58:27;;;;;;;28.02;14.07;;;;;;;7.36;67.59;100402.38;10244304;29;20044;-80
2024/03/18 05:03:29;;;;;;;22.15;11.70;;;;;;;7.20;66.94;100407.88;10237368;29;20054;-81
2024/03/18 05:08:31;;;;;;;23.70;11.75;;;;;;;7.32;66.13;100407.03;10246845;28;20039;-81
2024/03/18 05:13:34;;;;;;;23.67;12.93;;;;;;;7.34;66.86;100405.13;10230389;29;20091;-81
2024/03/18 05:18:36;;;;;;;26.05;12.75;;;;;;;7.18;66.47;100407.97;10244253;29;20572;-81
2024/03/18 05:23:38;;;;;;;21.52;13.02;;;;;;;7.22;66.08;100396.13;10240654;29;20050;-80
2024/03/18 05:28:42;;;;;;;20.60;11.80;;;;;;;7.38;66.08;100401.31;10240144;29;20032;-81
2024/03/18 05:33:44;;;;;;;23.52;11.82;;;;;;;7.15;65.79;100393.97;10242595;28;20058;-82
2024/03/18 05:38:46;;;;;;;18.60;11.63;;;;;;;7.04;66.10;100389.34;10265809;28;20402;-82
2024/03/18 05:43:49;;;;;;;23.88;13.00;;;;;;;7.22;65.65;100384.59;10251806;28;20051;-81
2024/03/18 05:48:52;;;;;;;21.88;13.30;;;;;;;7.30;65.16;100392.09;10253955;29;20027;-82
2024/03/18 05:53:54;;;;;;;22.52;11.98;;;;;;;7.04;65.41;100387.50;10256340;29;20031;-81
2024/03/18 05:58:58;;;;;;;22.25;11.73;;;;;;;7.30;65.10;100392.09;10245978;29;20028;-80
2024/03/18 06:04:00;;;;;;;19.85;10.90;;;;;;;7.29;65.31;100388.53;10248082;29;20039;-81
2024/03/18 06:09:02;;;;;;;27.67;10.82;;;;;;;7.24;65.00;100396.91;10231075;29;20055;-81
2024/03/18 06:14:08;;;;;;;21.50;10.90;;;;;;;7.38;64.12;100397.78;10235411;29;20422;-80
2024/03/18 06:19:14;;;;;;;18.77;11.77;;;;;;;7.44;64.22;100402.72;10252382;29;20106;-80
2024/03/18 06:24:20;;;;;;;19.23;11.35;;;;;;;7.24;63.93;100393.34;10247540;29;20051;-80
2024/03/18 06:29:23;;;;;;;21.15;11.25;;;;;;;7.45;63.46;100402.59;10229898;29;20046;-80
2024/03/18 06:34:25;;;;;;;19.65;11.25;;;;;;;7.60;63.29;100399.84;10242519;29;20043;-81
2024/03/18 06:39:27;;;;;;;20.83;11.40;;;;;;;7.47;63.20;100391.81;10233878;29;20032;-80
2024/03/18 06:44:31;;;;;;;20.48;11.20;;;;;;;7.72;63.15;100402.53;10227146;29;20059;-82
2024/03/18 06:49:37;;;;;;;17.40;10.65;;;;;;;7.76;62.21;100392.47;10251582;29;20055;-81
2024/03/18 06:54:39;;;;;;;17.38;10.38;;;;;;;7.71;62.93;100386.59;10240889;29;20111;-80
2024/03/18 06:59:42;;;;;;;18.65;10.48;;;;;;;7.68;66.89;100408.22;10241653;28;20050;-81
2024/03/18 07:04:44;;;;;;;20.00;10.65;;;;;;;7.50;70.02;100403.13;10248633;29;20106;-80
2024/03/18 07:09:46;;;;;;;18.30;11.77;;;;;;;7.05;72.31;100405.28;10251631;29;20107;-81
2024/03/18 07:14:50;;;;;;;19.90;11.32;;;;;;;6.97;77.56;100412.94;10265916;28;20067;-80
2024/03/18 07:19:52;;;;;;;22.42;12.90;;;;;;;6.53;87.72;100410.44;10271303;29;20042;-80
2024/03/18 07:24:54;;;;;;;23.38;12.82;;;;;;;5.95;93.97;100418.47;10265206;29;20051;-82
2024/03/18 07:30:00;;;;;;;;;;;;;;;6.04;97.78;100411.69;10268290;28;20620;-82
2024/03/18 07:35:04;;;;;;;28.38;13.55;;;;;;;6.03;99.06;100414.44;10237370;28;19922;-83
2024/03/18 07:40:09;;;;;;;27.70;14.10;;;;;;;6.25;100.00;100419.31;10262689;28;20060;-80
2024/03/18 07:45:13;;;;;;;27.25;14.95;;;;;;;6.39;100.00;100419.31;10265855;28;20046;-81
2024/03/18 07:50:15;;;;;;;27.15;15.10;;;;;;;6.35;99.41;100418.63;10259685;28;20055;-80
2024/03/18 07:55:17;;;;;;;26.13;13.95;;;;;;;6.56;99.63;100412.91;10231995;28;226917;-82
2024/03/18 08:00:40;;;;;;;25.02;13.52;;;;;;;6.73;98.90;100419.84;10493970;27;20472;-82
2024/03/18 08:05:41;;;;;;;30.35;13.48;;;;;;;6.81;97.94;100423.72;10404445;28;20076;-81
2024/03/18 08:10:41;;;;;;;25.05;14.10;;;;;;;6.89;95.51;100435.75;10421608;28;20124;-82
2024/03/18 08:15:46;;;;;;;21.85;12.40;;;;;;;6.93;95.12;100434.59;10411605;28;20100;-82
2024/03/18 08:20:47;;;;;;;26.08;13.65;;;;;;;6.83;90.11;100439.66;10390041;28;20050;-82
2024/03/18 08:25:47;;;;;;;23.05;14.18;;;;;;;6.75;92.83;100442.81;10396930;28;20092;-83
2024/03/18 08:30:48;;;;;;;22.20;13.90;;;;;;;6.62;95.65;100448.06;10399983;28;20590;-83
2024/03/18 08:35:52;;;;;;;24.42;13.90;;;;;;;6.72;97.88;100440.34;10396314;28;20041;-81
2024/03/18 08:40:54;;;;;;;25.48;13.77;;;;;;;6.78;95.38;100447.94;10406895;28;20049;-82
2024/03/18 08:45:56;;;;;;;24.25;14.68;;;;;;;7.01;98.17;100442.97;10411813;28;20045;-81
2024/03/18 08:50:57;;;;;;;25.50;14.05;;;;;;;6.77;93.28;100445.34;10398232;28;20056;-81
2024/03/18 08:55:58;;;;;;;23.63;14.10;;;;;;;6.71;91.19;100437.75;10413011;28;21040;-81
2024/03/18 09:00:59;;;;;;;25.23;13.98;;;;;;;7.09;94.70;100450.47;10426607;28;20140;-82
2024/03/18 09:05:59;;;;;;;22.45;14.38;;;;;;;7.04;94.00;100438.25;10385285;28;20042;-82
2024/03/18 09:11:00;;;;;;;26.55;14.43;;;;;;;7.05;93.76;100444.47;10389058;28;20092;-82
2024/03/18 09:16:02;;;;;;;23.05;13.95;;;;;;;6.83;93.54;100458.34;10377630;28;20064;-82
2024/03/18 09:21:03;;;;;;;31.83;15.32;;;;;;;6.99;98.03;100452.88;10384091;28;20448;-82
2024/03/18 09:26:04;;;;;;;34.67;16.02;;;;;;;7.21;100.00;100447.88;10387825;28;20041;-81
2024/03/18 09:31:05;;;;;;;34.17;16.98;;;;;;;6.99;100.00;100458.22;10362517;28;20072;-83
2024/03/18 09:36:06;;;;;;;29.55;16.77;;;;;;;7.36;100.00;100448.66;10373086;28;20802;-82
2024/03/18 09:41:07;;;;;;;29.48;16.55;;;;;;;7.23;100.00;100453.94;10398480;28;20134;-82
2024/03/18 09:46:11;;;;;;;30.63;17.42;;;;;;;7.34;100.00;100450.56;10400411;28;20056;-82
2024/03/18 09:51:16;;;;;;;35.15;19.33;;;;;;;7.20;100.00;100450.63;10388121;28;20141;-79
2024/03/18 09:56:18;;;;;;;31.48;16.88;;;;;;;7.22;100.00;100446.91;10398693;28;20061;-84
2024/03/18 10:01:21;;;;;;;33.53;17.95;;;;;;;7.32;100.00;100456.97;10393309;28;20092;-82
2024/03/18 10:06:25;;;;;;;32.97;18.33;;;;;;;7.46;100.00;100452.44;10387109;28;20045;-83
2024/03/18 10:11:26;;;;;;;35.08;19.23;;;;;;;7.62;100.00;100454.91;10399172;28;20042;-81
2024/03/18 10:16:27;;;;;;;38.40;21.02;;;;;;;7.65;100.00;100456.50;10379332;28;20048;-81
2024/03/18 10:21:28;;;;;;;33.00;18.00;;;;;;;7.49;100.00;100451.38;10384723;28;20052;-82
2024/03/18 10:26:31;;;;;;;37.60;18.92;;;;;;;7.50;100.00;100447.72;10387222;28;20052;-82
2024/03/18 10:31:37;;;;;;;41.65;19.80;;;;;;;7.70;100.00;100447.22;10367248;28;20046;-83
2024/03/18 10:36:39;;;;;;;32.92;18.05;;;;;;;7.64;100.00;100449.47;10397686;28;20099;-83
2024/03/18 10:41:41;;;;;;;34.63;19.50;;;;;;;7.62;100.00;100452.22;10370998;28;20041;-83
2024/03/18 10:46:46;;;;;;;34.03;19.77;;;;;;;7.77;100.00;100462.88;10382122;28;20041;-83
2024/03/18 10:51:49;;;;;;;38.90;21.30;;;;;;;7.82;100.00;100461.59;10382606;28;20524;-82
2024/03/18 10:56:49;;;;;;;36.83;19.20;;;;;;;7.97;100.00;100465.03;10382452;28;20131;-82
2024/03/18 11:01:50;;;;;;;32.25;19.67;;;;;;;7.97;100.00;100472.19;10381080;28;20061;-81
2024/03/18 11:06:55;;;;;;;36.90;21.45;;;;;;;7.80;100.00;100455.50;10371305;28;20340;-83
2024/03/18 11:11:56;;;;;;;39.42;23.08;;;;;;;8.11;100.00;100470.28;10373455;28;20058;-81
2024/03/18 11:17:06;;;;;;;33.90;20.58;;;;;;;7.98;100.00;100469.44;10391172;28;20069;-83
2024/03/18 11:22:09;;;;;;;36.30;21.80;;;;;;;8.04;100.00;100479.69;10372011;28;20045;-83
2024/03/18 11:27:10;;;;;;;43.63;23.92;;;;;;;8.08;100.00;100467.81;10385387;28;20045;-82
2024/03/18 11:32:11;;;;;;;40.75;21.52;;;;;;;7.98;100.00;100469.44;10400781;28;20141;-82
2024/03/18 11:37:15;;;;;;;44.17;22.55;;;;;;;7.93;100.00;100469.75;10415152;28;20044;-83
2024/03/18 11:42:16;;;;;;;39.35;22.83;;;;;;;8.03;100.00;100469.09;10376322;28;20060;-80
2024/03/18 11:47:17;;;;;;;40.50;21.58;;;;;;;7.99;100.00;100471.13;10407803;28;20032;-82
2024/03/18 11:52:18;;;;;;;41.67;22.30;;;;;;;8.26;100.00;100457.66;10395424;28;20062;-81
2024/03/18 11:57:22;;;;;;;37.97;22.10;;;;;;;8.59;100.00;100466.97;10379776;28;20053;-82
2024/03/18 12:02:23;;;;;;;36.38;22.33;;;;;;;8.58;100.00;100470.59;10376843;28;20137;-83
2024/03/18 12:07:24;;;;;;;29.88;19.35;;;;;;;8.49;100.00;100469.44;10371325;28;20121;-83
2024/03/18 12:12:25;;;;;;;32.78;21.42;;;;;;;8.96;100.00;100464.31;10374023;28;20079;-82
2024/03/18 12:17:27;;;;;;;29.83;20.45;;;;;;;8.99;100.00;100462.25;10381143;28;20064;-83
2024/03/18 12:22:30;;;;;;;30.13;20.00;;;;;;;9.15;100.00;100459.31;10381315;28;20057;-80
2024/03/18 12:32:50;;;;;;;29.15;19.90;;;;;;;9.38;100.00;100454.94;10369665;28;20041;-81
2024/03/18 12:37:55;;;;;;;29.52;17.52;;;;;;;9.68;100.00;100453.56;10350162;28;20045;-82
2024/03/18 12:42:56;;;;;;;35.03;19.13;;;;;;;9.38;100.00;100462.09;10380084;28;20080;-82
2024/03/18 12:47:58;;;;;;;23.92;16.83;;;;;;;9.39;100.00;100462.00;10381180;28;20087;-83
2024/03/18 12:53:01;;;;;;;31.65;20.13;;;;;;;9.68;100.00;100461.59;10385497;28;20108;-81
2024/03/18 12:58:02;;;;;;;31.65;19.23;;;;;;;9.53;100.00;100466.31;10372164;28;20504;-83
2024/03/18 13:03:04;;;;;;;32.80;20.15;;;;;;;9.42;100.00;100471.63;10399757;28;20073;-79
2024/03/18 13:08:10;;;;;;;36.13;21.63;;;;;;;9.37;100.00;100458.56;10366719;28;20112;-80
2024/03/18 13:13:13;;;;;;;35.58;19.80;;;;;;;9.32;100.00;100455.38;10382405;28;20048;-82
2024/03/18 13:18:15;;;;;;;35.00;20.52;;;;;;;9.38;100.00;100456.72;10364815;28;20046;-81
2024/03/18 13:23:16;;;;;;;32.30;19.98;;;;;;;9.80;100.00;100449.09;10371378;28;20049;-80
2024/03/18 13:28:18;;;;;;;35.53;22.35;;;;;;;10.13;100.00;100459.94;10370960;28;20041;-82
2024/03/18 13:33:19;;;;;;;31.20;19.23;;;;;;;10.50;100.00;100458.84;10377907;28;20056;-82
2024/03/18 13:38:20;;;;;;;28.25;17.95;;;;;;;11.12;100.00;100452.94;10390510;28;20040;-82
2024/03/18 13:43:21;;;;;;;28.42;19.45;;;;;;;11.03;98.00;100454.53;10387472;28;20069;-83
2024/03/18 13:48:22;;;;;;;28.90;18.37;;;;;;;10.72;96.97;100450.78;10384281;28;20029;-81
2024/03/18 13:53:23;;;;;;;35.17;20.40;;;;;;;11.18;99.55;100440.84;10419123;28;20054;-82
2024/03/18 13:58:24;;;;;;;31.27;18.08;;;;;;;11.62;100.00;100441.63;10374137;28;20128;-82
2024/03/18 14:03:25;;;;;;;27.65;16.65;;;;;;;11.81;98.72;100447.16;10387883;28;20290;-82
2024/03/18 14:08:26;;;;;;;25.30;17.58;;;;;;;11.73;99.70;100444.28;10398267;28;20045;-82
2024/03/18 14:13:27;;;;;;;24.83;16.50;;;;;;;11.64;97.97;100445.06;10364896;28;20681;-82
2024/03/18 14:18:31;;;;;;;24.35;16.38;;;;;;;11.27;94.00;100446.31;10364582;28;20084;-82
2024/03/18 14:23:32;;;;;;;33.17;17.10;;;;;;;11.19;93.30;100445.22;10374523;28;20105;-82
2024/03/18 14:28:33;;;;;;;27.45;18.27;;;;;;;11.31;95.62;100454.97;10376857;28;20088;-82
2024/03/18 14:33:35;;;;;;;26.75;17.38;;;;;;;11.31;94.74;100454.13;10382401;28;20037;-81
2024/03/18 14:38:35;;;;;;;29.63;18.55;;;;;;;11.26;94.70;100454.50;10367831;28;20038;-81
2024/03/18 14:43:39;;;;;;;26.85;17.15;;;;;;;11.04;93.35;100450.00;10376616;28;20037;-81
2024/03/18 14:48:40;;;;;;;24.77;16.75;;;;;;;11.03;94.23;100437.56;10393292;28;20100;-81
2024/03/18 14:53:42;;;;;;;27.05;17.75;;;;;;;11.22;99.13;100445.84;10391536;28;20028;-82
2024/03/18 14:58:46;;;;;;;28.20;16.90;;;;;;;11.18;94.10;100440.84;10393109;28;20057;-82
2024/03/18 15:03:47;;;;;;;29.42;18.52;;;;;;;11.01;95.25;100445.72;10383524;28;20068;-82
2024/03/18 15:08:47;;;;;;;27.20;15.95;;;;;;;11.10;97.95;100446.81;10380349;28;20085;-81
2024/03/18 15:13:51;;;;;;;24.40;15.07;;;;;;;10.94;95.18;100441.84;10380315;28;20068;-81
2024/03/18 15:18:54;;;;;;;27.80;15.38;;;;;;;10.96;97.21;100450.63;10380576;28;20029;-81
2024/03/18 15:28:56;;;;;;;25.27;14.68;;;;;;;10.97;97.37;100438.91;10388069;28;20117;-81
2024/03/18 15:33:58;;;;;;;25.40;14.55;;;;;;;10.87;99.69;100454.06;10367636;28;20053;-80
2024/03/18 15:38:59;;;;;;;23.63;14.30;;;;;;;10.86;100.00;100449.69;10360957;28;20042;-81
2024/03/18 15:44:00;;;;;;;25.63;15.50;;;;;;;10.75;99.55;100455.06;10369074;28;20053;-82
2024/03/18 15:49:02;;;;;;;20.88;14.45;;;;;;;10.68;100.00;100453.84;10371199;28;20029;-82
2024/03/18 15:54:03;;;;;;;20.80;14.17;;;;;;;10.64;100.00;100461.31;10380309;28;20121;-80
2024/03/18 15:59:05;;;;;;;22.38;15.02;;;;;;;10.49;99.93;100466.06;10388894;28;20404;-82
2024/03/18 16:04:06;;;;;;;24.75;15.55;;;;;;;10.36;100.00;100460.78;10370126;28;20491;-81
2024/03/18 16:09:06;;;;;;;29.20;16.15;;;;;;;10.19;100.00;100477.38;10374298;28;20041;-82
2024/03/18 16:14:07;;;;;;;24.88;16.63;;;;;;;10.09;100.00;100471.00;10351747;28;20546;-82
2024/03/18 16:19:15;;;;;;;23.60;15.88;;;;;;;10.10;100.00;100468.22;10395215;28;20045;-81
2024/03/18 16:24:16;;;;;;;23.88;16.48;;;;;;;10.17;100.00;100463.22;10395989;28;20045;-81
2024/03/18 16:29:16;;;;;;;30.08;17.83;;;;;;;10.16;100.00;100462.38;10382815;28;20034;-82
2024/03/18 16:34:17;;;;;;;26.73;16.77;;;;;;;10.14;100.00;100450.88;10398978;28;20058;-81
2024/03/18 16:39:19;;;;;;;29.20;18.02;;;;;;;10.10;100.00;100449.44;10388088;28;20025;-82
2024/03/18 16:44:20;;;;;;;34.33;16.75;;;;;;;10.03;100.00;100458.06;10358605;28;20046;-82
2024/03/18 16:49:21;;;;;;;28.02;17.88;;;;;;;9.94;100.00;100463.19;10395140;28;20038;-82
2024/03/18 16:54:22;;;;;;;28.63;17.45;;;;;;;9.95;100.00;100466.72;10383541;28;20042;-82
2024/03/18 16:59:24;;;;;;;28.70;18.02;;;;;;;9.87;100.00;100479.88;10399528;28;20038;-82
2024/03/18 17:04:25;;;;;;;25.05;16.48;;;;;;;9.84;100.00;100482.75;10389653;28;20049;-81
2024/03/18 17:09:26;;;;;;;26.40;15.97;;;;;;;9.79;100.00;100492.97;10374171;28;20506;-81
2024/03/18 17:14:26;;;;;;;29.30;17.65;;;;;;;9.77;100.00;100498.47;10373016;28;20095;-81
2024/03/18 17:19:27;;;;;;;26.70;16.52;;;;;;;9.73;100.00;100488.94;10384319;28;20054;-82
2024/03/18 17:24:28;;;;;;;27.48;17.60;;;;;;;9.66;100.00;100498.44;10396495;28;20049;-82
2024/03/18 17:29:29;;;;;;;28.70;18.55;;;;;;;9.61;100.00;100495.25;10408877;28;20048;-81
2024/03/18 17:34:33;;;;;;;32.80;19.50;;;;;;;9.51;100.00;100508.47;10387055;28;20098;-81
2024/03/18 17:39:34;;;;;;;25.88;17.02;;;;;;;9.45;100.00;100511.63;10396516;28;20033;-81
2024/03/18 17:44:35;;;;;;;23.38;15.50;;;;;;;9.42;100.00;100518.06;10394686;28;20052;-81
2024/03/18 17:49:36;;;;;;;21.45;14.98;;;;;;;9.38;100.00;100526.44;10383821;28;20041;-81
2024/03/18 17:54:37;;;;;;;26.80;15.93;;;;;;;9.40;100.00;100536.06;10371834;28;20042;-81
2024/03/18 17:59:38;;;;;;;27.27;16.10;;;;;;;9.41;100.00;100531.59;10388557;28;20045;-80
2024/03/18 18:04:39;;;;;;;27.48;16.30;;;;;;;9.45;100.00;100533.91;10375996;28;20034;-81
2024/03/18 18:09:40;;;;;;;24.50;15.63;;;;;;;9.44;100.00;100536.72;10370868;28;20038;-81
2024/03/18 18:14:41;;;;;;;24.73;16.60;;;;;;;9.38;100.00;100546.09;10362015;28;20102;-80
2024/03/18 18:19:41;;;;;;;28.38;15.68;;;;;;;9.39;100.00;100542.41;10329852;28;20050;-80
2024/03/18 18:24:42;;;;;;;27.02;17.27;;;;;;;9.44;100.00;100553.66;10319993;28;20564;-81
2024/03/18 18:29:43;;;;;;;24.70;16.52;;;;;;;9.46;100.00;100545.50;10353743;28;20127;-81
2024/03/18 18:34:44;;;;;;;31.08;17.23;;;;;;;9.46;100.00;100559.78;10327462;28;20097;-82
2024/03/18 18:39:45;;;;;;;33.00;16.65;;;;;;;9.45;100.00;100562.56;10318402;28;20416;-82
2024/03/18 18:44:47;;;;;;;26.88;16.13;;;;;;;9.49;100.00;100567.59;10324902;28;20184;-82
2024/03/18 18:49:48;;;;;;;29.67;15.70;;;;;;;9.55;100.00;100568.13;10325944;28;20053;-82
2024/03/18 18:54:49;;;;;;;34.90;18.13;;;;;;;9.44;100.00;100567.06;10356698;28;20124;-82
2024/03/18 18:59:56;;;;;;;26.53;16.37;;;;;;;9.53;100.00;100568.22;10339308;28;20562;-81
2024/03/18 19:05:03;;;;;;;27.30;16.60;;;;;;;9.56;100.00;100580.53;10343842;28;20056;-81
2024/03/18 19:10:11;;;;;;;23.92;15.25;;;;;;;9.57;100.00;100577.78;10346372;28;20042;-85
2024/03/18 19:15:13;;;;;;;27.25;17.20;;;;;;;9.57;100.00;100574.19;10366191;28;20045;-83
2024/03/18 19:20:14;;;;;;;26.52;16.45;;;;;;;9.55;100.00;100573.47;10348820;28;20112;-82
2024/03/18 19:25:16;;;;;;;30.25;17.60;;;;;;;9.50;100.00;100563.94;10323018;28;20119;-82
2024/03/18 19:30:17;;;;;;;31.20;17.58;;;;;;;9.41;100.00;100578.03;10311027;28;20049;-82
2024/03/18 19:35:18;;;;;;;28.33;18.30;;;;;;;9.44;100.00;100582.31;10333857;28;20042;-82
2024/03/18 19:40:19;;;;;;;29.65;18.98;;;;;;;9.34;100.00;100586.63;10362788;28;20049;-82
2024/03/18 19:45:21;;;;;;;31.45;18.38;;;;;;;9.37;100.00;100578.34;10330582;28;20073;-83
2024/03/18 19:50:21;;;;;;;33.10;19.02;;;;;;;9.37;100.00;100581.03;10337344;28;20072;-84
2024/03/18 19:55:22;;;;;;;29.73;19.20;;;;;;;9.45;100.00;100578.66;10325067;28;20540;-83
2024/03/18 20:00:25;;;;;;;37.47;20.08;;;;;;;9.48;100.00;100581.09;10344579;28;20049;-83
2024/03/18 20:05:27;;;;;;;29.85;19.55;;;;;;;9.54;100.00;100582.47;10349829;28;21067;-81
2024/03/18 20:10:28;;;;;;;33.08;19.77;;;;;;;9.50;100.00;100579.19;10360703;28;20053;-81
2024/03/18 20:15:29;;;;;;;35.53;21.80;;;;;;;9.55;100.00;100586.88;10337712;28;20107;-82
2024/03/18 20:20:29;;;;;;;42.38;23.27;;;;;;;9.45;100.00;100590.22;10349581;28;20831;-83
2024/03/18 20:25:30;;;;;;;33.38;20.02;;;;;;;9.18;100.00;100589.56;10334499;28;20056;-82
2024/03/18 20:30:31;;;;;;;37.85;21.75;;;;;;;9.29;100.00;100589.63;10334621;28;20045;-82
2024/03/18 20:35:32;;;;;;;35.95;21.85;;;;;;;9.34;100.00;100590.16;10341122;28;20077;-82
2024/03/18 20:40:33;;;;;;;50.25;27.83;;;;;;;9.36;100.00;100587.38;10331970;28;20096;-83
2024/03/18 20:45:34;;;;;;;52.60;28.60;;;;;;;9.42;100.00;100587.78;10344733;28;20038;-82
2024/03/18 20:50:35;;;;;;;52.13;27.85;;;;;;;9.38;100.00;100582.72;10352116;28;20104;-84
2024/03/18 20:55:36;;;;;;;61.17;33.35;;;;;;;9.42;100.00;100584.25;10318026;28;20788;-83
2024/03/18 21:00:36;;;;;;;39.90;25.77;;;;;;;9.42;100.00;100584.25;10328619;28;20630;-83
2024/03/18 21:05:38;;;;;;;45.08;26.85;;;;;;;9.36;100.00;100588.22;10361528;28;20919;-82
2024/03/18 21:10:39;;;;;;;43.75;25.08;;;;;;;9.31;100.00;100595.75;10361551;28;20042;-84
2024/03/18 21:15:40;;;;;;;44.65;26.67;;;;;;;9.25;100.00;100588.16;10338258;28;20048;-83
2024/03/18 21:20:41;;;;;;;43.13;26.98;;;;;;;9.23;100.00;100584.72;10335512;28;20056;-84
2024/03/18 21:25:41;;;;;;;44.20;26.33;;;;;;;9.25;100.00;100596.19;10339840;28;20053;-83
2024/03/18 21:30:43;;;;;;;39.22;25.05;;;;;;;9.29;100.00;100605.72;10331689;28;20049;-83
2024/03/18 21:35:44;;;;;;;43.67;25.33;;;;;;;9.28;100.00;100614.72;10337171;28;20079;-82
2024/03/18 21:40:45;;;;;;;38.03;25.45;;;;;;;9.23;100.00;100616.88;10345522;28;20084;-82
2024/03/18 21:45:46;;;;;;;43.38;25.70;;;;;;;9.18;100.00;100627.91;10323602;28;20045;-83
2024/03/18 21:50:47;;;;;;;41.58;26.00;;;;;;;9.19;100.00;100608.22;10316482;28;20230;-83
2024/03/18 21:55:47;;;;;;;46.05;26.55;;;;;;;9.17;100.00;100606.59;10361770;28;20974;-82
2024/03/18 22:00:49;;;;;;;44.20;26.25;;;;;;;9.15;100.00;100609.38;10404392;28;20041;-82
2024/03/18 22:05:50;;;;;;;43.75;26.52;;;;;;;9.13;100.00;100605.09;10387734;28;20037;-81
2024/03/18 22:10:51;;;;;;;45.17;27.70;;;;;;;9.11;100.00;100613.28;10418597;28;20042;-81
2024/03/18 22:15:52;;;;;;;45.60;27.53;;;;;;;9.06;100.00;100612.72;10405009;28;20588;-82
2024/03/18 22:20:53;;;;;;;50.45;30.75;;;;;;;9.01;100.00;100613.06;10386398;28;20296;-81
2024/03/18 22:25:54;;;;;;;48.72;27.70;;;;;;;8.99;100.00;100614.97;10398268;28;20049;-82
2024/03/18 22:30:55;;;;;;;52.40;28.83;;;;;;;8.95;100.00;100605.47;10390295;28;20488;-81
2024/03/18 22:35:56;;;;;;;47.75;28.85;;;;;;;8.89;100.00;100619.28;10390102;28;20172;-80
2024/03/18 22:40:57;;;;;;;55.65;29.27;;;;;;;8.83;100.00;100617.03;10386841;28;20038;-81
2024/03/18 22:45:59;;;;;;;45.75;28.55;;;;;;;8.78;100.00;100616.50;10366638;28;20064;-81
2024/03/18 22:50:59;;;;;;;52.97;29.95;;;;;;;8.72;100.00;100614.22;10380618;28;20045;-80